createdAt,value
2018-07-12T00:01:35.776Z,65.43
2018-07-12T00:04:09.239Z,73.10
2018-07-12T00:06:42.588Z,61.00
2018-07-12T00:09:16.072Z,69.20
2018-07-12T00:11:49.533Z,69.77
2018-07-12T00:14:22.882Z,76.17
2018-07-12T00:16:56.296Z,77.37
2018-07-12T00:19:29.800Z,72.93
2018-07-12T00:22:03.204Z,71.57
2018-07-12T00:24:36.656Z,72.07
2018-07-12T00:27:10.098Z,64.13
2018-07-12T00:29:43.562Z,68.60
2018-07-12T00:32:16.960Z,61.27
2018-07-12T00:34:50.430Z,61.50
2018-07-12T00:37:23.984Z,64.73
2018-07-12T00:39:57.377Z,64.87
2018-07-12T00:42:30.904Z,67.27
2018-07-12T00:45:04.446Z,58.70
2018-07-12T00:47:37.959Z,54.17
2018-07-12T00:50:11.421Z,47.43
2018-07-12T00:52:44.965Z,46.20
2018-07-12T00:55:18.346Z,46.63
2018-07-12T00:57:51.797Z,46.00
2018-07-12T01:00:25.363Z,47.80
2018-07-12T01:02:58.757Z,47.60
2018-07-12T01:05:32.312Z,50.40
2018-07-12T01:08:05.737Z,49.67
2018-07-12T01:10:39.165Z,53.20
2018-07-12T01:13:12.641Z,47.80
2018-07-12T01:15:46.164Z,54.47
2018-07-12T01:18:19.655Z,57.13
2018-07-12T01:20:53.079Z,47.77
2018-07-12T01:23:26.401Z,53.47
2018-07-12T01:25:59.919Z,46.87
2018-07-12T01:28:33.663Z,47.23
2018-07-12T01:31:07.271Z,43.80
2018-07-12T01:33:40.641Z,46.70
2018-07-12T01:36:14.225Z,47.03
2018-07-12T01:38:47.630Z,49.50
2018-07-12T01:41:21.520Z,47.43
2018-07-12T01:43:55.218Z,44.73
2018-07-12T01:46:28.804Z,45.90
2018-07-12T01:49:02.360Z,50.40
2018-07-12T01:51:35.835Z,48.23
2018-07-12T01:54:09.460Z,48.70
2018-07-12T01:56:42.919Z,49.73
2018-07-12T01:59:16.320Z,53.30
2018-07-12T02:01:49.692Z,64.80
2018-07-12T02:04:23.319Z,58.67
2018-07-12T02:06:56.724Z,48.87
2018-07-12T02:09:30.244Z,42.40
2018-07-12T02:12:03.877Z,69.27
2018-07-12T02:14:37.272Z,68.50
2018-07-12T02:17:10.843Z,78.97
2018-07-12T02:19:44.460Z,63.37
2018-07-12T02:22:17.973Z,57.53
2018-07-12T02:24:51.464Z,74.37
2018-07-12T02:27:24.993Z,87.37
2018-07-12T02:29:58.527Z,74.40
2018-07-12T02:32:31.973Z,67.60
2018-07-12T02:35:05.502Z,62.37
2018-07-12T02:37:38.908Z,60.23
2018-07-12T02:40:12.845Z,68.00
2018-07-12T02:42:46.100Z,82.53
2018-07-12T02:45:19.561Z,88.20
2018-07-12T02:47:52.798Z,91.07
2018-07-12T02:50:26.192Z,76.60
2018-07-12T02:52:59.500Z,76.47
2018-07-12T02:55:32.793Z,84.07
2018-07-12T02:58:06.007Z,103.40
2018-07-12T03:00:39.228Z,80.70
2018-07-12T03:03:12.479Z,83.17
2018-07-12T03:05:45.724Z,99.70
2018-07-12T03:08:19.024Z,90.63
2018-07-12T03:10:52.448Z,75.97
2018-07-12T03:13:25.735Z,84.87
2018-07-12T03:15:58.978Z,80.57
2018-07-12T03:18:32.271Z,87.83
2018-07-12T03:21:05.531Z,131.00
2018-07-12T03:23:38.835Z,85.47
2018-07-12T03:26:12.187Z,109.73
2018-07-12T03:28:45.347Z,106.80
2018-07-12T03:31:18.739Z,97.37
2018-07-12T03:33:52.104Z,99.70
2018-07-12T03:36:25.552Z,100.73
2018-07-12T03:38:58.779Z,85.37
2018-07-12T03:41:31.984Z,108.10
2018-07-12T03:44:05.239Z,137.03
2018-07-12T03:46:38.635Z,103.50
2018-07-12T03:49:11.925Z,152.30
2018-07-12T03:51:45.156Z,414.37
2018-07-12T03:54:18.387Z,543.47
2018-07-12T03:56:51.644Z,673.27
2018-07-12T03:59:24.898Z,492.27
2018-07-12T04:01:58.146Z,470.47
2018-07-12T04:04:31.375Z,412.47
2018-07-12T04:07:04.675Z,418.27
2018-07-12T04:09:37.879Z,348.13
2018-07-12T04:12:11.264Z,484.47
2018-07-12T04:14:44.451Z,286.40
2018-07-12T04:17:27.162Z,289.93
2018-07-12T04:20:01.596Z,562.17
2018-07-12T04:22:35.880Z,386.70
2018-07-12T04:25:09.247Z,347.77
2018-07-12T04:27:42.503Z,224.03
2018-07-12T04:30:15.720Z,211.13
2018-07-12T04:32:48.976Z,185.87
2018-07-12T04:35:22.200Z,128.33
2018-07-12T04:37:55.547Z,115.37
2018-07-12T04:40:28.831Z,108.80
2018-07-12T04:43:02.083Z,90.53
2018-07-12T04:45:35.364Z,98.53
2018-07-12T04:48:08.571Z,95.30
2018-07-12T04:50:41.827Z,100.93
2018-07-12T04:53:15.051Z,97.57
2018-07-12T04:55:48.332Z,100.13
2018-07-12T04:58:21.652Z,123.83
2018-07-12T05:00:55.363Z,128.70
2018-07-12T05:03:28.935Z,127.40
2018-07-12T05:06:02.129Z,100.93
2018-07-12T05:08:35.399Z,94.80
2018-07-12T05:11:08.674Z,87.63
2018-07-12T05:13:41.996Z,88.83
2018-07-12T05:16:15.336Z,81.27
2018-07-12T05:18:48.574Z,102.87
2018-07-12T05:21:21.853Z,101.87
2018-07-12T05:23:55.231Z,103.20
2018-07-12T05:26:28.538Z,108.40
2018-07-12T05:29:01.815Z,104.60
2018-07-12T05:31:35.227Z,112.90
2018-07-12T05:34:08.470Z,115.93
2018-07-12T05:36:59.892Z,103.27
2018-07-12T05:39:34.192Z,104.17
2018-07-12T05:42:08.631Z,105.27
2018-07-12T05:44:42.909Z,104.97
2018-07-12T05:47:17.251Z,112.90
2018-07-12T05:49:51.648Z,116.50
2018-07-12T05:52:26.079Z,109.27
2018-07-12T05:55:00.351Z,113.37
2018-07-12T05:57:34.808Z,113.90
2018-07-12T06:00:09.127Z,106.80
2018-07-12T06:02:43.375Z,109.90
2018-07-12T06:05:17.624Z,116.67
2018-07-12T06:07:52.131Z,128.57
2018-07-12T06:10:26.579Z,131.70
2018-07-12T06:13:01.027Z,126.90
2018-07-12T06:15:35.275Z,148.70
2018-07-12T06:18:09.575Z,142.83
2018-07-12T06:20:43.971Z,161.30
2018-07-12T06:23:18.383Z,150.00
2018-07-12T06:25:52.807Z,139.00
2018-07-12T06:28:27.091Z,141.90
2018-07-12T06:31:01.515Z,148.93
2018-07-12T06:33:35.743Z,137.03
2018-07-12T06:36:10.196Z,142.93
2018-07-12T06:38:44.868Z,152.47
2018-07-12T06:41:19.171Z,148.17
2018-07-12T06:43:53.439Z,137.53
2018-07-12T06:46:27.783Z,147.80
2018-07-12T06:49:02.352Z,144.93
2018-07-12T06:51:36.613Z,146.87
2018-07-12T06:54:11.079Z,163.80
2018-07-12T06:56:45.387Z,155.00
2018-07-12T06:59:19.931Z,156.20
2018-07-12T07:01:54.303Z,165.23
2018-07-12T07:04:28.731Z,160.83
2018-07-12T07:07:03.169Z,144.10
2018-07-12T07:09:37.574Z,125.13
2018-07-12T07:12:12.016Z,113.50
2018-07-12T07:14:46.453Z,128.23
2018-07-12T07:17:20.767Z,120.70
2018-07-12T07:19:55.423Z,124.10
2018-07-12T07:22:30.624Z,121.73
2018-07-12T07:25:05.114Z,120.40
2018-07-12T07:27:39.547Z,123.87
2018-07-12T07:30:14.016Z,113.47
2018-07-12T07:32:48.307Z,114.20
2018-07-12T07:35:22.725Z,114.50
2018-07-12T07:37:57.095Z,104.93
2018-07-12T07:40:31.550Z,104.97
2018-07-12T07:43:06.201Z,110.47
2018-07-12T07:45:40.656Z,108.50
2018-07-12T07:48:15.358Z,94.87
2018-07-12T07:50:49.763Z,93.47
2018-07-12T07:53:24.076Z,97.00
2018-07-12T07:55:58.721Z,96.30
2018-07-12T07:58:33.129Z,107.37
2018-07-12T08:01:07.540Z,109.23
2018-07-12T08:03:41.948Z,101.83
2018-07-12T08:06:16.291Z,103.40
2018-07-12T08:08:50.715Z,101.63
2018-07-12T08:11:24.931Z,98.67
2018-07-12T08:13:59.335Z,97.60
2018-07-12T08:16:33.842Z,103.50
2018-07-12T08:19:08.212Z,103.33
2018-07-12T08:21:42.572Z,109.97
2018-07-12T08:24:16.950Z,105.07
2018-07-12T08:26:51.386Z,101.93
2018-07-12T08:29:25.824Z,99.33
2018-07-12T08:32:00.628Z,94.20
2018-07-12T08:34:35.002Z,97.83
2018-07-12T08:37:09.423Z,109.00
2018-07-12T08:39:43.759Z,92.57
2018-07-12T08:42:18.174Z,92.90
2018-07-12T08:44:52.539Z,92.83
2018-07-12T08:47:27.012Z,86.83
2018-07-12T08:50:01.330Z,83.37
2018-07-12T08:52:35.980Z,80.03
2018-07-12T08:55:10.357Z,80.63
2018-07-12T08:57:45.456Z,81.83
2018-07-12T09:00:19.734Z,79.60
2018-07-12T09:02:54.094Z,80.47
2018-07-12T09:05:28.492Z,86.87
2018-07-12T09:08:02.947Z,73.00
2018-07-12T09:10:37.248Z,74.20
2018-07-12T09:13:11.671Z,73.60
2018-07-12T09:15:46.073Z,66.27
2018-07-12T09:18:20.371Z,65.83
2018-07-12T09:20:54.784Z,63.30
2018-07-12T09:23:29.207Z,62.43
2018-07-12T09:26:03.607Z,61.13
2018-07-12T09:28:38.010Z,62.37
2018-07-12T09:31:12.391Z,55.33
2018-07-12T09:33:46.739Z,55.13
2018-07-12T09:36:21.130Z,53.70
2018-07-12T09:38:55.456Z,51.30
2018-07-12T09:41:29.731Z,50.53
2018-07-12T09:44:04.091Z,46.57
2018-07-12T09:46:38.463Z,44.17
2018-07-12T09:49:13.128Z,39.60
2018-07-12T09:51:47.347Z,40.67
2018-07-12T09:54:21.782Z,38.80
2018-07-12T09:57:07.723Z,29.90
2018-07-12T09:59:42.180Z,34.43
2018-07-12T10:02:22.023Z,32.10
2018-07-12T10:04:56.285Z,29.77
2018-07-12T10:07:30.694Z,25.50
2018-07-12T10:10:05.188Z,26.77
2018-07-12T10:12:44.941Z,27.87
2018-07-12T10:15:24.891Z,26.07
2018-07-12T10:18:04.725Z,19.60
2018-07-12T10:20:39.266Z,23.47
2018-07-12T10:23:13.592Z,22.63
2018-07-12T10:25:48.016Z,15.20
2018-07-12T10:28:22.420Z,16.07
2018-07-12T10:30:56.869Z,17.70
2018-07-12T10:33:31.123Z,18.77
2018-07-12T10:36:05.583Z,16.03
2018-07-12T10:38:40.005Z,18.23
2018-07-12T10:41:14.441Z,16.83
2018-07-12T10:43:48.795Z,16.93
2018-07-12T10:46:23.164Z,14.43
2018-07-12T10:48:57.476Z,13.00
2018-07-12T10:51:31.739Z,10.97
2018-07-12T10:54:06.183Z,12.23
2018-07-12T10:56:40.594Z,18.60
2018-07-12T10:59:15.052Z,20.10
2018-07-12T11:01:49.462Z,21.80
2018-07-12T11:04:23.826Z,22.63
2018-07-12T11:06:58.223Z,18.77
2018-07-12T11:09:32.643Z,17.13
2018-07-12T11:12:07.079Z,19.23
2018-07-12T11:14:41.540Z,14.03
2018-07-12T11:17:15.959Z,17.83
2018-07-12T11:19:50.387Z,17.00
2018-07-12T11:22:24.848Z,15.27
2018-07-12T11:24:59.303Z,14.93
2018-07-12T11:27:33.670Z,16.27
2018-07-12T11:30:08.052Z,16.57
2018-07-12T11:32:42.424Z,21.13
2018-07-12T11:35:16.827Z,23.30
2018-07-12T11:37:51.262Z,21.63
2018-07-12T11:40:25.632Z,23.23
2018-07-12T11:43:00.131Z,21.77
2018-07-12T11:45:34.531Z,23.10
2018-07-12T11:48:08.920Z,19.70
2018-07-12T11:50:43.204Z,21.77
2018-07-12T11:53:17.687Z,20.57
2018-07-12T11:55:53.155Z,21.20
2018-07-12T11:58:27.599Z,21.47
2018-07-12T12:01:02.241Z,23.90
2018-07-12T12:03:36.687Z,23.73
2018-07-12T12:06:11.123Z,20.83
2018-07-12T12:08:45.547Z,20.17
2018-07-12T12:11:19.984Z,19.90
2018-07-12T12:13:54.315Z,24.53
2018-07-12T12:16:28.727Z,21.73
2018-07-12T12:19:03.139Z,22.97
2018-07-12T12:21:37.455Z,21.73
2018-07-12T12:24:11.751Z,23.03
2018-07-12T12:26:46.051Z,22.03
2018-07-12T12:29:20.313Z,18.13
2018-07-12T12:31:54.667Z,18.33
2018-07-12T12:34:28.943Z,20.30
2018-07-12T12:37:03.656Z,19.80
2018-07-12T12:39:37.942Z,21.27
2018-07-12T12:42:12.395Z,21.13
2018-07-12T12:44:46.859Z,19.77
2018-07-12T12:47:21.151Z,20.00
2018-07-12T12:49:55.464Z,20.53
2018-07-12T12:52:29.983Z,18.40
2018-07-12T12:55:04.652Z,19.43
2018-07-12T12:57:39.096Z,19.77
2018-07-12T13:00:13.588Z,18.83
2018-07-12T13:02:47.979Z,23.47
2018-07-12T13:05:22.247Z,19.40
2018-07-12T13:07:56.653Z,21.03
2018-07-12T13:10:30.903Z,17.97
2018-07-12T13:13:05.419Z,18.70
2018-07-12T13:15:39.676Z,16.27
2018-07-12T13:18:14.060Z,14.63
2018-07-12T13:20:48.444Z,12.13
2018-07-12T13:23:22.746Z,18.10
2018-07-12T13:25:57.175Z,13.27
2018-07-12T13:28:31.551Z,13.73
2018-07-12T13:31:06.155Z,13.93
2018-07-12T13:33:40.406Z,12.27
2018-07-12T13:36:14.791Z,11.10
2018-07-12T13:38:49.149Z,10.40
2018-07-12T13:41:23.477Z,12.40
2018-07-12T13:44:20.372Z,12.97
2018-07-12T13:46:55.407Z,9.37
2018-07-12T13:49:29.744Z,8.77
2018-07-12T13:52:04.212Z,8.37
2018-07-12T13:54:38.432Z,9.23
2018-07-12T13:57:12.819Z,7.57
2018-07-12T13:59:47.262Z,9.60
2018-07-12T14:02:21.620Z,8.90
2018-07-12T14:04:55.919Z,10.93
2018-07-12T14:07:30.308Z,9.20
2018-07-12T14:10:04.855Z,8.33
2018-07-12T14:12:39.047Z,9.77
2018-07-12T14:15:13.451Z,8.37
2018-07-12T14:17:47.815Z,7.87
2018-07-12T14:20:22.203Z,7.70
2018-07-12T14:22:56.611Z,7.37
2018-07-12T14:25:30.863Z,6.87
2018-07-12T14:28:05.275Z,5.40
2018-07-12T14:30:39.670Z,6.40
2018-07-12T14:33:14.027Z,4.30
2018-07-12T14:35:48.348Z,8.30
2018-07-12T14:38:22.727Z,7.30
2018-07-12T14:40:57.111Z,5.90
2018-07-12T14:43:31.478Z,6.67
2018-07-12T14:46:05.891Z,5.17
2018-07-12T14:48:40.139Z,5.57
2018-07-12T14:51:14.577Z,5.33
2018-07-12T14:53:48.975Z,4.43
2018-07-12T14:56:23.411Z,6.10
2018-07-12T14:58:57.839Z,4.67
2018-07-12T15:01:32.198Z,4.13
2018-07-12T15:04:06.716Z,5.80
2018-07-12T15:06:40.944Z,4.20
2018-07-12T15:09:15.527Z,6.23
2018-07-12T15:11:50.110Z,4.13
2018-07-12T15:14:24.423Z,4.57
2018-07-12T15:16:58.802Z,4.03
2018-07-12T15:19:33.062Z,5.70
2018-07-12T15:22:07.525Z,5.97
2018-07-12T15:24:41.872Z,5.13
2018-07-12T15:27:16.211Z,4.07
2018-07-12T15:29:50.656Z,3.70
2018-07-12T15:32:25.032Z,4.33
2018-07-12T15:34:59.402Z,4.60
2018-07-12T15:37:33.819Z,4.80
2018-07-12T15:40:08.210Z,3.90
2018-07-12T15:42:42.615Z,5.73
2018-07-12T15:45:17.018Z,5.70
2018-07-12T15:47:51.412Z,7.10
2018-07-12T15:50:26.791Z,5.87
2018-07-12T15:53:01.063Z,5.03
2018-07-12T15:55:35.243Z,6.90
2018-07-12T15:58:09.519Z,4.87
2018-07-12T16:00:43.943Z,6.80
2018-07-12T16:03:18.339Z,5.70
2018-07-12T16:05:52.923Z,5.40
2018-07-12T16:08:28.334Z,3.93
2018-07-12T16:11:02.851Z,5.97
2018-07-12T16:13:37.269Z,5.00
2018-07-12T16:16:11.704Z,7.63
2018-07-12T16:18:45.933Z,4.70
2018-07-12T16:21:20.229Z,5.00
2018-07-12T16:23:54.588Z,5.73
2018-07-12T16:26:28.887Z,5.10
2018-07-12T16:29:03.484Z,6.27
2018-07-12T16:31:37.804Z,5.37
2018-07-12T16:34:12.332Z,6.03
2018-07-12T16:36:46.698Z,8.97
2018-07-12T16:39:21.135Z,5.90
2018-07-12T16:41:55.667Z,5.90
2018-07-12T16:44:30.018Z,6.37
2018-07-12T16:47:04.591Z,4.67
2018-07-12T16:49:39.117Z,6.73
2018-07-12T16:52:13.419Z,8.57
2018-07-12T16:54:47.880Z,6.97
2018-07-12T16:57:22.203Z,5.00
2018-07-12T16:59:56.570Z,6.63
2018-07-12T17:02:30.861Z,6.23
2018-07-12T17:05:05.301Z,4.57
2018-07-12T17:07:39.727Z,5.63
2018-07-12T17:10:14.259Z,6.93
2018-07-12T17:12:48.706Z,5.43
2018-07-12T17:15:23.171Z,6.10
2018-07-12T17:17:57.557Z,6.00
2018-07-12T17:20:31.991Z,8.23
2018-07-12T17:23:06.326Z,7.03
2018-07-12T17:25:40.749Z,6.47
2018-07-12T17:28:15.044Z,8.23
2018-07-12T17:30:49.462Z,8.17
2018-07-12T17:33:23.894Z,8.23
2018-07-12T17:35:58.255Z,6.93
2018-07-12T17:38:32.552Z,6.07
2018-07-12T17:41:07.057Z,6.20
2018-07-12T17:43:41.263Z,5.40
2018-07-12T17:46:15.582Z,7.97
2018-07-12T17:48:49.995Z,7.23
2018-07-12T17:51:24.352Z,6.13
2018-07-12T17:53:58.750Z,5.73
2018-07-12T17:56:33.163Z,5.70
2018-07-12T17:59:07.451Z,5.70
2018-07-12T18:01:41.938Z,9.10
2018-07-12T18:04:16.338Z,5.00
2018-07-12T18:06:50.718Z,5.03
2018-07-12T18:09:25.079Z,4.30
2018-07-12T18:11:59.520Z,4.83
2018-07-12T18:14:34.064Z,8.13
2018-07-12T18:17:08.353Z,4.83
2018-07-12T18:19:42.643Z,7.00
2018-07-12T18:22:17.177Z,6.97
2018-07-12T18:24:51.286Z,7.47
2018-07-12T18:27:25.743Z,4.70
2018-07-12T18:30:00.240Z,6.53
2018-07-12T18:32:34.648Z,6.60
2018-07-12T18:35:08.935Z,8.73
2018-07-12T18:37:43.319Z,9.30
2018-07-12T18:40:17.627Z,5.73
2018-07-12T18:42:52.067Z,7.00
2018-07-12T18:45:26.455Z,6.10
2018-07-12T18:48:00.871Z,4.90
2018-07-12T18:50:35.210Z,4.47
2018-07-12T18:53:09.637Z,4.43
2018-07-12T18:55:44.147Z,4.13
2018-07-12T18:58:18.544Z,4.73
2018-07-12T19:00:53.056Z,6.93
2018-07-12T19:03:27.463Z,7.90
2018-07-12T19:06:01.912Z,4.50
2018-07-12T19:08:36.912Z,3.90
2018-07-12T19:11:11.312Z,4.60
2018-07-12T19:13:46.942Z,4.83
2018-07-12T19:16:21.501Z,4.53
2018-07-12T19:18:56.056Z,4.67
2018-07-12T19:21:30.760Z,4.67
2018-07-12T19:24:05.336Z,3.87
2018-07-12T19:26:39.916Z,4.93
2018-07-12T19:29:14.500Z,4.80
2018-07-12T19:31:48.863Z,4.17
2018-07-12T19:34:23.527Z,6.40
2018-07-12T19:36:58.060Z,4.40
2018-07-12T19:39:32.611Z,2.87
2018-07-12T19:42:06.996Z,3.43
2018-07-12T19:44:41.493Z,4.97
2018-07-12T19:47:16.254Z,5.97
2018-07-12T19:49:50.749Z,3.23
2018-07-12T19:52:25.387Z,7.73
2018-07-12T19:54:59.651Z,4.47
2018-07-12T19:57:34.003Z,3.20
2018-07-12T20:00:08.644Z,7.13
2018-07-12T20:02:42.984Z,5.07
2018-07-12T20:05:17.408Z,8.33
2018-07-12T20:07:51.901Z,5.57
2018-07-12T20:10:26.567Z,6.87
2018-07-12T20:13:01.117Z,4.63
2018-07-12T20:15:36.045Z,5.43
2018-07-12T20:18:10.530Z,5.33
2018-07-12T20:20:45.139Z,7.70
2018-07-12T20:23:19.705Z,3.77
2018-07-12T20:25:54.374Z,6.43
2018-07-12T20:28:28.804Z,5.87
2018-07-12T20:31:03.162Z,5.37
2018-07-12T20:33:37.661Z,4.67
2018-07-12T20:36:12.233Z,3.90
2018-07-12T20:38:46.714Z,5.80
2018-07-12T20:41:21.154Z,6.57
2018-07-12T20:43:55.613Z,6.00
2018-07-12T20:46:29.970Z,5.93
2018-07-12T20:49:04.363Z,5.53
2018-07-12T20:51:38.808Z,5.23
2018-07-12T20:54:13.360Z,6.40
2018-07-12T20:56:47.765Z,5.10
2018-07-12T20:59:22.255Z,6.53
2018-07-12T21:01:56.688Z,5.20
2018-07-12T21:04:31.192Z,5.70
2018-07-12T21:07:05.857Z,5.83
2018-07-12T21:09:40.426Z,5.00
2018-07-12T21:12:15.009Z,7.07
2018-07-12T21:14:49.961Z,8.17
2018-07-12T21:17:24.448Z,11.83
2018-07-12T21:19:59.117Z,6.57
2018-07-12T21:22:33.616Z,7.97
2018-07-12T21:25:08.137Z,9.77
2018-07-12T21:27:42.628Z,7.33
2018-07-12T21:30:17.143Z,10.77
2018-07-12T21:32:51.852Z,8.27
2018-07-12T21:35:26.378Z,6.90
2018-07-12T21:38:00.943Z,6.40
2018-07-12T21:40:35.419Z,5.47
2018-07-12T21:43:09.740Z,6.00
2018-07-12T21:45:44.388Z,7.87
2018-07-12T21:48:19.105Z,6.70
2018-07-12T21:50:53.653Z,11.33
2018-07-12T21:53:28.239Z,8.20
2018-07-12T21:56:02.743Z,9.87
2018-07-12T21:58:37.328Z,9.50
2018-07-12T22:01:11.616Z,7.67
2018-07-12T22:03:46.224Z,8.43
2018-07-12T22:07:00.584Z,8.53
2018-07-12T22:09:35.190Z,10.60
2018-07-12T22:12:09.793Z,9.10
2018-07-12T22:14:44.537Z,15.47
2018-07-12T22:17:19.068Z,8.30
2018-07-12T22:19:53.612Z,9.63
2018-07-12T22:22:28.177Z,9.20
2018-07-12T22:25:02.741Z,8.13
2018-07-12T22:27:37.261Z,9.73
2018-07-12T22:30:11.815Z,11.33
2018-07-12T22:32:46.344Z,8.93
2018-07-12T22:35:20.860Z,8.63
2018-07-12T22:37:55.707Z,9.00
2018-07-12T22:40:30.359Z,12.10
2018-07-12T22:43:04.784Z,15.63
2018-07-12T22:45:39.438Z,11.80
2018-07-12T22:48:14.107Z,9.23
2018-07-12T22:50:48.518Z,14.87
2018-07-12T22:53:22.988Z,12.00
2018-07-12T22:55:57.796Z,12.87
2018-07-12T22:58:32.273Z,10.27
2018-07-12T23:01:06.729Z,11.83
2018-07-12T23:03:41.394Z,16.10
2018-07-12T23:06:16.856Z,13.20
2018-07-12T23:08:51.407Z,12.60
2018-07-12T23:11:26.025Z,10.57
2018-07-12T23:14:00.516Z,10.33
2018-07-12T23:16:34.956Z,10.40
2018-07-12T23:19:09.598Z,10.47
2018-07-12T23:21:44.183Z,12.50
2018-07-12T23:24:18.589Z,11.53
2018-07-12T23:26:53.469Z,13.87
2018-07-12T23:29:28.152Z,14.20
2018-07-12T23:32:02.821Z,14.20
2018-07-12T23:34:37.396Z,13.90
2018-07-12T23:37:12.019Z,14.17
2018-07-12T23:39:46.437Z,14.33
2018-07-12T23:42:20.932Z,12.67
2018-07-12T23:44:55.797Z,15.33
2018-07-12T23:47:30.412Z,12.23
2018-07-12T23:50:04.819Z,12.80
2018-07-12T23:52:39.500Z,14.00
2018-07-12T23:55:14.205Z,12.97
2018-07-12T23:57:48.724Z,14.53
